sensor_id;sensor_type;location;lat;lon;timestamp;pressure;altitude;pressure_sealevel;temperature;humidity
20710;BME280;10516;51.518;9.864;2022-09-14T00:01:43;98053.88;;;16.03;80.34
20710;BME280;10516;51.518;9.864;2022-09-14T00:04:15;98062.31;;;15.61;80.29
20710;BME280;10516;51.518;9.864;2022-09-14T00:06:41;98066.16;;;15.82;80.26
20710;BME280;10516;51.518;9.864;2022-09-14T00:09:15;98050.34;;;15.67;78.42
20710;BME280;10516;51.518;9.864;2022-09-14T00:11:41;98047.16;;;15.79;78.59
20710;BME280;10516;51.518;9.864;2022-09-14T00:14:07;98073.75;;;15.80;79.57
20710;BME280;10516;51.518;9.864;2022-09-14T00:16:35;98077.72;;;15.96;78.19
20710;BME280;10516;51.518;9.864;2022-09-14T00:19:03;98077.59;;;16.01;78.37
20710;BME280;10516;51.518;9.864;2022-09-14T00:21:31;98060.06;;;15.36;79.50
20710;BME280;10516;51.518;9.864;2022-09-14T00:23:57;98056.94;;;15.74;81.77
20710;BME280;10516;51.518;9.864;2022-09-14T00:26:22;98046.16;;;15.74;78.83
20710;BME280;10516;51.518;9.864;2022-09-14T00:28:51;98050.66;;;15.65;78.06
20710;BME280;10516;51.518;9.864;2022-09-14T00:31:17;98041.13;;;15.00;80.20
20710;BME280;10516;51.518;9.864;2022-09-14T00:33:45;98049.59;;;14.93;80.20
20710;BME280;10516;51.518;9.864;2022-09-14T00:36:22;98037.72;;;15.54;79.07
20710;BME280;10516;51.518;9.864;2022-09-14T00:38:48;98033.22;;;15.63;79.35
20710;BME280;10516;51.518;9.864;2022-09-14T00:41:17;98031.84;;;15.52;78.77
20710;BME280;10516;51.518;9.864;2022-09-14T00:46:44;98023.41;;;15.40;78.20
20710;BME280;10516;51.518;9.864;2022-09-14T00:51:46;98013.38;;;15.32;78.64
20710;BME280;10516;51.518;9.864;2022-09-14T00:54:13;98013.38;;;15.32;78.18
20710;BME280;10516;51.518;9.864;2022-09-14T00:56:39;98024.38;;;15.98;78.37
20710;BME280;10516;51.518;9.864;2022-09-14T00:59:11;98010.22;;;15.93;76.36
20710;BME280;10516;51.518;9.864;2022-09-14T01:01:38;98024.44;;;15.57;77.28
20710;BME280;10516;51.518;9.864;2022-09-14T01:04:04;98018.03;;;15.94;77.71
20710;BME280;10516;51.518;9.864;2022-09-14T01:06:55;98024.81;;;15.78;75.64
20710;BME280;10516;51.518;9.864;2022-09-14T01:09:34;98024.63;;;16.10;74.92
20710;BME280;10516;51.518;9.864;2022-09-14T01:18:17;98023.84;;;15.47;75.84
20710;BME280;10516;51.518;9.864;2022-09-14T01:20:55;98016.22;;;16.25;76.17
20710;BME280;10516;51.518;9.864;2022-09-14T01:23:42;98016.69;;;16.05;74.64
20710;BME280;10516;51.518;9.864;2022-09-14T01:36:50;97999.75;;;15.42;76.92
20710;BME280;10516;51.518;9.864;2022-09-14T01:39:18;97989.78;;;15.29;76.58
20710;BME280;10516;51.518;9.864;2022-09-14T01:41:46;97983.41;;;15.25;75.49
20710;BME280;10516;51.518;9.864;2022-09-14T01:44:39;98003.13;;;15.07;75.93
20710;BME280;10516;51.518;9.864;2022-09-14T01:47:12;97974.16;;;15.44;75.07
20710;BME280;10516;51.518;9.864;2022-09-14T01:49:46;97994.19;;;15.52;74.95
20710;BME280;10516;51.518;9.864;2022-09-14T01:52:17;98000.78;;;16.17;75.03
20710;BME280;10516;51.518;9.864;2022-09-14T01:54:51;97998.53;;;16.33;74.36
20710;BME280;10516;51.518;9.864;2022-09-14T01:57:41;97982.75;;;15.82;72.86
20710;BME280;10516;51.518;9.864;2022-09-14T02:00:12;97980.63;;;15.93;74.58
20710;BME280;10516;51.518;9.864;2022-09-14T02:02:46;97997.56;;;15.93;74.45
20710;BME280;10516;51.518;9.864;2022-09-14T02:05:19;97993.97;;;15.21;74.55
20710;BME280;10516;51.518;9.864;2022-09-14T02:07:48;97979.25;;;16.17;74.14
20710;BME280;10516;51.518;9.864;2022-09-14T02:10:14;97983.25;;;15.84;74.69
20710;BME280;10516;51.518;9.864;2022-09-14T02:12:41;97987.78;;;15.97;74.50
20710;BME280;10516;51.518;9.864;2022-09-14T02:15:09;97986.69;;;15.49;73.96
20710;BME280;10516;51.518;9.864;2022-09-14T02:17:35;97969.63;;;15.81;73.25
20710;BME280;10516;51.518;9.864;2022-09-14T02:20:04;97966.41;;;16.59;72.76
20710;BME280;10516;51.518;9.864;2022-09-14T02:22:32;97960.75;;;16.02;73.32
20710;BME280;10516;51.518;9.864;2022-09-14T02:24:57;97963.09;;;15.32;74.77
20710;BME280;10516;51.518;9.864;2022-09-14T02:27:24;97968.38;;;15.51;75.20
20710;BME280;10516;51.518;9.864;2022-09-14T02:29:50;97957.13;;;15.35;74.89
20710;BME280;10516;51.518;9.864;2022-09-14T02:40:23;97958.69;;;15.63;75.23
20710;BME280;10516;51.518;9.864;2022-09-14T02:53:50;97952.19;;;15.64;74.40
20710;BME280;10516;51.518;9.864;2022-09-14T02:56:18;97932.41;;;15.33;74.58
20710;BME280;10516;51.518;9.864;2022-09-14T02:58:44;97947.38;;;15.26;74.94
20710;BME280;10516;51.518;9.864;2022-09-14T03:01:17;97918.28;;;16.21;72.85
20710;BME280;10516;51.518;9.864;2022-09-14T03:03:43;97923.66;;;16.43;71.15
20710;BME280;10516;51.518;9.864;2022-09-14T03:06:08;97938.63;;;16.80;71.00
20710;BME280;10516;51.518;9.864;2022-09-14T03:08:34;97913.47;;;16.63;70.79
20710;BME280;10516;51.518;9.864;2022-09-14T03:11:00;97920.63;;;16.14;71.01
20710;BME280;10516;51.518;9.864;2022-09-14T03:13:25;97905.84;;;15.45;73.43
20710;BME280;10516;51.518;9.864;2022-09-14T03:15:51;97888.69;;;16.21;72.38
20710;BME280;10516;51.518;9.864;2022-09-14T03:18:16;97923.09;;;16.77;71.09
20710;BME280;10516;51.518;9.864;2022-09-14T03:20:42;97906.94;;;16.86;70.17
20710;BME280;10516;51.518;9.864;2022-09-14T03:23:08;97913.66;;;16.97;70.11
20710;BME280;10516;51.518;9.864;2022-09-14T03:25:36;97916.47;;;16.30;71.77
20710;BME280;10516;51.518;9.864;2022-09-14T03:28:03;97899.84;;;16.59;70.88
20710;BME280;10516;51.518;9.864;2022-09-14T03:30:29;97923.78;;;16.38;71.29
20710;BME280;10516;51.518;9.864;2022-09-14T03:32:55;97916.63;;;16.56;71.78
20710;BME280;10516;51.518;9.864;2022-09-14T03:35:21;97931.00;;;16.82;70.77
20710;BME280;10516;51.518;9.864;2022-09-14T03:37:47;97924.22;;;16.54;72.17
20710;BME280;10516;51.518;9.864;2022-09-14T03:40:14;97924.00;;;16.73;71.50
20710;BME280;10516;51.518;9.864;2022-09-14T03:42:44;97923.28;;;16.36;72.50
20710;BME280;10516;51.518;9.864;2022-09-14T03:45:11;97922.97;;;16.60;72.58
20710;BME280;10516;51.518;9.864;2022-09-14T03:47:38;97905.47;;;16.80;71.51
20710;BME280;10516;51.518;9.864;2022-09-14T03:50:05;97909.47;;;16.91;71.83
20710;BME280;10516;51.518;9.864;2022-09-14T03:52:30;97915.66;;;16.91;71.76
20710;BME280;10516;51.518;9.864;2022-09-14T03:54:55;97902.09;;;16.13;74.06
20710;BME280;10516;51.518;9.864;2022-09-14T03:57:21;97914.41;;;16.58;73.38
20710;BME280;10516;51.518;9.864;2022-09-14T03:59:46;97903.97;;;16.12;73.98
20710;BME280;10516;51.518;9.864;2022-09-14T04:02:12;97880.09;;;16.41;73.66
20710;BME280;10516;51.518;9.864;2022-09-14T04:04:37;97899.13;;;16.76;73.53
20710;BME280;10516;51.518;9.864;2022-09-14T04:07:03;97878.81;;;16.70;73.31
20710;BME280;10516;51.518;9.864;2022-09-14T04:09:28;97902.03;;;16.88;73.36
20710;BME280;10516;51.518;9.864;2022-09-14T04:11:54;97904.25;;;16.86;73.66
20710;BME280;10516;51.518;9.864;2022-09-14T04:14:19;97901.34;;;16.82;74.03
20710;BME280;10516;51.518;9.864;2022-09-14T04:16:44;97899.47;;;16.83;73.73
20710;BME280;10516;51.518;9.864;2022-09-14T04:19:11;97891.91;;;16.54;74.83
20710;BME280;10516;51.518;9.864;2022-09-14T04:21:36;97870.03;;;16.56;74.29
20710;BME280;10516;51.518;9.864;2022-09-14T04:24:02;97871.81;;;16.69;74.38
20710;BME280;10516;51.518;9.864;2022-09-14T04:26:29;97873.56;;;16.65;74.20
20710;BME280;10516;51.518;9.864;2022-09-14T04:28:55;97883.91;;;16.49;75.21
20710;BME280;10516;51.518;9.864;2022-09-14T04:31:21;97891.28;;;16.57;75.32
20710;BME280;10516;51.518;9.864;2022-09-14T04:33:47;97891.09;;;16.54;75.57
20710;BME280;10516;51.518;9.864;2022-09-14T04:36:17;97882.13;;;16.67;74.95
20710;BME280;10516;51.518;9.864;2022-09-14T04:38:43;97886.75;;;16.75;74.59
20710;BME280;10516;51.518;9.864;2022-09-14T04:41:15;97884.56;;;16.77;74.78
20710;BME280;10516;51.518;9.864;2022-09-14T04:43:42;97886.00;;;15.99;77.16
20710;BME280;10516;51.518;9.864;2022-09-14T04:46:16;97876.78;;;16.44;75.91
20710;BME280;10516;51.518;9.864;2022-09-14T04:48:42;97880.53;;;16.66;75.57
20710;BME280;10516;51.518;9.864;2022-09-14T04:53:37;97878.72;;;15.77;76.53
20710;BME280;10516;51.518;9.864;2022-09-14T04:56:04;97858.63;;;15.39;77.95
20710;BME280;10516;51.518;9.864;2022-09-14T04:58:31;97873.88;;;16.10;77.92
20710;BME280;10516;51.518;9.864;2022-09-14T05:03:55;97855.59;;;15.05;80.36
20710;BME280;10516;51.518;9.864;2022-09-14T05:06:26;97873.81;;;16.02;77.98
20710;BME280;10516;51.518;9.864;2022-09-14T05:08:53;97870.75;;;15.95;77.37
20710;BME280;10516;51.518;9.864;2022-09-14T05:11:21;97881.75;;;16.29;76.96
20710;BME280;10516;51.518;9.864;2022-09-14T05:13:47;97878.34;;;16.45;76.25
20710;BME280;10516;51.518;9.864;2022-09-14T05:16:24;97871.06;;;16.46;76.08
20710;BME280;10516;51.518;9.864;2022-09-14T05:18:52;97881.41;;;16.00;76.81
20710;BME280;10516;51.518;9.864;2022-09-14T05:21:20;97886.13;;;15.72;78.45
20710;BME280;10516;51.518;9.864;2022-09-14T05:23:46;97880.41;;;15.38;79.04
20710;BME280;10516;51.518;9.864;2022-09-14T05:26:12;97883.91;;;15.38;78.40
20710;BME280;10516;51.518;9.864;2022-09-14T05:28:39;97877.63;;;14.93;79.84
20710;BME280;10516;51.518;9.864;2022-09-14T05:31:06;97876.94;;;15.95;78.17
20710;BME280;10516;51.518;9.864;2022-09-14T05:33:32;97877.84;;;15.68;78.31
20710;BME280;10516;51.518;9.864;2022-09-14T05:36:03;97868.34;;;15.49;77.67
20710;BME280;10516;51.518;9.864;2022-09-14T05:38:30;97884.41;;;16.20;77.21
20710;BME280;10516;51.518;9.864;2022-09-14T05:40:56;97871.72;;;16.21;77.11
20710;BME280;10516;51.518;9.864;2022-09-14T05:43:22;97876.06;;;16.30;76.72
20710;BME280;10516;51.518;9.864;2022-09-14T05:45:48;97868.34;;;16.37;76.46
20710;BME280;10516;51.518;9.864;2022-09-14T05:48:13;97889.19;;;16.54;76.03
20710;BME280;10516;51.518;9.864;2022-09-14T05:50:39;97863.47;;;16.17;76.23
20710;BME280;10516;51.518;9.864;2022-09-14T05:53:05;97866.38;;;14.78;79.27
20710;BME280;10516;51.518;9.864;2022-09-14T05:55:30;97882.69;;;15.09;81.27
20710;BME280;10516;51.518;9.864;2022-09-14T05:57:55;97888.75;;;16.08;78.29
20710;BME280;10516;51.518;9.864;2022-09-14T06:00:21;97873.00;;;16.23;77.02
20710;BME280;10516;51.518;9.864;2022-09-14T06:02:48;97857.78;;;16.19;77.31
20710;BME280;10516;51.518;9.864;2022-09-14T06:05:14;97862.28;;;16.32;76.89
20710;BME280;10516;51.518;9.864;2022-09-14T06:07:39;97860.19;;;16.20;76.66
20710;BME280;10516;51.518;9.864;2022-09-14T06:10:05;97872.44;;;16.35;75.71
20710;BME280;10516;51.518;9.864;2022-09-14T06:12:31;97853.34;;;15.92;78.28
20710;BME280;10516;51.518;9.864;2022-09-14T06:14:56;97872.41;;;16.26;77.09
20710;BME280;10516;51.518;9.864;2022-09-14T06:17:21;97882.59;;;16.38;76.86
20710;BME280;10516;51.518;9.864;2022-09-14T06:19:47;97873.84;;;16.32;76.75
20710;BME280;10516;51.518;9.864;2022-09-14T06:22:12;97873.50;;;16.25;76.85
20710;BME280;10516;51.518;9.864;2022-09-14T06:24:37;97889.09;;;16.37;76.64
20710;BME280;10516;51.518;9.864;2022-09-14T06:27:03;97867.78;;;16.18;76.69
20710;BME280;10516;51.518;9.864;2022-09-14T06:29:28;97873.50;;;16.03;77.92
20710;BME280;10516;51.518;9.864;2022-09-14T06:31:54;97875.91;;;16.27;76.89
20710;BME280;10516;51.518;9.864;2022-09-14T06:34:19;97849.97;;;15.87;77.68
20710;BME280;10516;51.518;9.864;2022-09-14T06:36:45;97854.38;;;16.05;77.74
20710;BME280;10516;51.518;9.864;2022-09-14T06:39:11;97848.56;;;16.11;77.23
20710;BME280;10516;51.518;9.864;2022-09-14T06:41:36;97866.50;;;16.16;77.32
20710;BME280;10516;51.518;9.864;2022-09-14T06:44:01;97866.03;;;16.22;77.38
20710;BME280;10516;51.518;9.864;2022-09-14T06:46:32;97877.94;;;16.30;76.86
20710;BME280;10516;51.518;9.864;2022-09-14T06:49:02;97865.31;;;15.86;78.19
20710;BME280;10516;51.518;9.864;2022-09-14T06:53:56;97871.69;;;15.68;79.12
20710;BME280;10516;51.518;9.864;2022-09-14T06:56:25;97866.53;;;15.58;79.50
20710;BME280;10516;51.518;9.864;2022-09-14T06:58:51;97858.97;;;15.60;80.00
20710;BME280;10516;51.518;9.864;2022-09-14T07:01:18;97873.88;;;16.10;78.56
20710;BME280;10516;51.518;9.864;2022-09-14T07:03:44;97875.69;;;16.23;77.81
20710;BME280;10516;51.518;9.864;2022-09-14T07:06:22;97876.16;;;15.72;78.41
20710;BME280;10516;51.518;9.864;2022-09-14T07:08:48;97873.06;;;15.43;81.14
20710;BME280;10516;51.518;9.864;2022-09-14T07:11:16;97850.16;;;15.46;80.35
20710;BME280;10516;51.518;9.864;2022-09-14T07:13:42;97879.44;;;15.47;79.50
20710;BME280;10516;51.518;9.864;2022-09-14T07:16:08;97871.84;;;15.36;78.76
20710;BME280;10516;51.518;9.864;2022-09-14T07:18:35;97900.06;;;15.25;80.82
20710;BME280;10516;51.518;9.864;2022-09-14T07:21:13;97877.94;;;15.28;80.63
20710;BME280;10516;51.518;9.864;2022-09-14T07:23:41;97886.75;;;15.91;78.99
20710;BME280;10516;51.518;9.864;2022-09-14T07:26:15;97871.81;;;16.07;78.04
20710;BME280;10516;51.518;9.864;2022-09-14T07:28:43;97857.69;;;16.02;78.38
20710;BME280;10516;51.518;9.864;2022-09-14T07:31:27;97854.66;;;16.03;78.30
20710;BME280;10516;51.518;9.864;2022-09-14T07:33:55;97864.66;;;16.03;78.03
20710;BME280;10516;51.518;9.864;2022-09-14T07:36:21;97868.28;;;15.98;78.46
20710;BME280;10516;51.518;9.864;2022-09-14T07:38:47;97866.50;;;15.94;78.66
20710;BME280;10516;51.518;9.864;2022-09-14T07:41:12;97841.78;;;15.92;78.61
20710;BME280;10516;51.518;9.864;2022-09-14T07:43:38;97881.88;;;16.24;77.50
20710;BME280;10516;51.518;9.864;2022-09-14T07:46:04;97864.09;;;16.14;77.95
20710;BME280;10516;51.518;9.864;2022-09-14T07:48:31;97850.28;;;16.07;77.91
20710;BME280;10516;51.518;9.864;2022-09-14T07:51:08;97849.81;;;16.05;77.71
20710;BME280;10516;51.518;9.864;2022-09-14T07:53:38;97878.72;;;16.22;77.86
20710;BME280;10516;51.518;9.864;2022-09-14T07:56:05;97873.81;;;16.24;77.85
20710;BME280;10516;51.518;9.864;2022-09-14T07:58:32;97865.19;;;16.13;77.87
20710;BME280;10516;51.518;9.864;2022-09-14T08:01:04;97870.16;;;16.20;78.08
20710;BME280;10516;51.518;9.864;2022-09-14T08:03:30;97857.69;;;16.02;78.44
20710;BME280;10516;51.518;9.864;2022-09-14T08:06:04;97857.03;;;15.96;79.43
20710;BME280;10516;51.518;9.864;2022-09-14T08:08:35;97859.00;;;16.13;78.66
20710;BME280;10516;51.518;9.864;2022-09-14T08:11:15;97850.34;;;16.16;78.04
20710;BME280;10516;51.518;9.864;2022-09-14T08:13:44;97822.38;;;16.03;78.19
20710;BME280;10516;51.518;9.864;2022-09-14T08:16:10;97839.16;;;15.78;79.25
20710;BME280;10516;51.518;9.864;2022-09-14T08:18:37;97845.50;;;16.04;78.81
20710;BME280;10516;51.518;9.864;2022-09-14T08:21:08;97856.25;;;16.26;79.00
20710;BME280;10516;51.518;9.864;2022-09-14T08:23:34;97856.28;;;16.04;78.82
20710;BME280;10516;51.518;9.864;2022-09-14T08:26:05;97832.28;;;15.14;80.67
20710;BME280;10516;51.518;9.864;2022-09-14T08:28:31;97842.72;;;15.65;80.97
20710;BME280;10516;51.518;9.864;2022-09-14T08:31:08;97858.06;;;15.64;80.87
20710;BME280;10516;51.518;9.864;2022-09-14T08:33:35;97860.00;;;14.74;83.76
20710;BME280;10516;51.518;9.864;2022-09-14T08:36:02;97845.28;;;14.58;84.15
20710;BME280;10516;51.518;9.864;2022-09-14T08:38:28;97862.63;;;15.28;82.96
20710;BME280;10516;51.518;9.864;2022-09-14T08:40:54;97848.44;;;15.50;81.43
20710;BME280;10516;51.518;9.864;2022-09-14T08:43:22;97831.34;;;15.68;80.53
20710;BME280;10516;51.518;9.864;2022-09-14T08:45:52;97847.75;;;15.44;81.07
20710;BME280;10516;51.518;9.864;2022-09-14T08:48:24;97846.31;;;16.05;80.38
20710;BME280;10516;51.518;9.864;2022-09-14T08:50:51;97831.41;;;15.99;79.56
20710;BME280;10516;51.518;9.864;2022-09-14T08:53:19;97843.19;;;16.11;79.28
20710;BME280;10516;51.518;9.864;2022-09-14T08:55:56;97840.34;;;16.16;79.44
20710;BME280;10516;51.518;9.864;2022-09-14T08:58:28;97839.50;;;16.07;79.45
20710;BME280;10516;51.518;9.864;2022-09-14T09:01:05;97830.31;;;16.08;79.35
20710;BME280;10516;51.518;9.864;2022-09-14T09:09:18;97831.47;;;14.37;86.36
20710;BME280;10516;51.518;9.864;2022-09-14T09:11:50;97828.94;;;15.66;82.48
20710;BME280;10516;51.518;9.864;2022-09-14T09:16:55;97811.22;;;15.65;82.00
20710;BME280;10516;51.518;9.864;2022-09-14T09:19:54;97833.28;;;15.54;81.97
20710;BME280;10516;51.518;9.864;2022-09-14T09:22:23;97835.94;;;15.18;84.43
20710;BME280;10516;51.518;9.864;2022-09-14T09:24:52;97821.59;;;14.46;86.68
20710;BME280;10516;51.518;9.864;2022-09-14T09:27:18;97842.78;;;14.34;88.08
20710;BME280;10516;51.518;9.864;2022-09-14T09:29:44;97840.81;;;14.80;87.27
20710;BME280;10516;51.518;9.864;2022-09-14T09:32:22;97809.19;;;14.50;88.44
20710;BME280;10516;51.518;9.864;2022-09-14T09:34:48;97823.75;;;14.98;86.39
20710;BME280;10516;51.518;9.864;2022-09-14T09:37:18;97821.50;;;15.28;84.57
20710;BME280;10516;51.518;9.864;2022-09-14T09:39:45;97814.78;;;15.74;82.90
20710;BME280;10516;51.518;9.864;2022-09-14T09:42:22;97792.16;;;16.06;81.25
20710;BME280;10516;51.518;9.864;2022-09-14T09:45:04;97788.94;;;16.26;79.91
20710;BME280;10516;51.518;9.864;2022-09-14T09:47:40;97797.06;;;16.43;79.86
20710;BME280;10516;51.518;9.864;2022-09-14T09:52:47;97819.03;;;15.18;84.38
20710;BME280;10516;51.518;9.864;2022-09-14T09:55:18;97820.22;;;15.61;83.86
20710;BME280;10516;51.518;9.864;2022-09-14T09:57:44;97823.00;;;14.84;85.89
20710;BME280;10516;51.518;9.864;2022-09-14T10:02:37;97824.28;;;14.46;87.71
20710;BME280;10516;51.518;9.864;2022-09-14T10:07:36;97826.31;;;14.08;89.77
20710;BME280;10516;51.518;9.864;2022-09-14T10:10:12;97826.19;;;14.32;89.16
20710;BME280;10516;51.518;9.864;2022-09-14T10:12:44;97817.91;;;14.42;90.19
20710;BME280;10516;51.518;9.864;2022-09-14T10:15:30;97817.53;;;14.62;87.59
20710;BME280;10516;51.518;9.864;2022-09-14T10:20:35;97783.38;;;15.26;84.28
20710;BME280;10516;51.518;9.864;2022-09-14T10:25:42;97815.28;;;14.10;90.68
20710;BME280;10516;51.518;9.864;2022-09-14T10:28:21;97815.91;;;13.75;92.50
20710;BME280;10516;51.518;9.864;2022-09-14T10:31:38;97809.06;;;13.82;92.75
20710;BME280;10516;51.518;9.864;2022-09-14T10:33:39;97821.38;;;13.83;92.53
20710;BME280;10516;51.518;9.864;2022-09-14T10:41:30;97823.00;;;13.66;93.78
20710;BME280;10516;51.518;9.864;2022-09-14T10:52:14;97820.06;;;13.48;92.63
20710;BME280;10516;51.518;9.864;2022-09-14T10:58:21;97798.91;;;14.66;88.18
20710;BME280;10516;51.518;9.864;2022-09-14T11:06:33;97814.16;;;14.30;89.78
20710;BME280;10516;51.518;9.864;2022-09-14T11:09:17;97814.56;;;14.04;91.51
20710;BME280;10516;51.518;9.864;2022-09-14T11:12:05;97799.09;;;13.69;92.89
20710;BME280;10516;51.518;9.864;2022-09-14T11:27:35;97799.53;;;14.49;89.81
20710;BME280;10516;51.518;9.864;2022-09-14T11:30:13;97791.22;;;14.05;94.28
20710;BME280;10516;51.518;9.864;2022-09-14T11:32:45;97792.22;;;13.95;93.86
20710;BME280;10516;51.518;9.864;2022-09-14T11:37:49;97791.41;;;15.03;89.05
20710;BME280;10516;51.518;9.864;2022-09-14T11:42:54;97777.16;;;14.40;92.46
20710;BME280;10516;51.518;9.864;2022-09-14T11:45:29;97788.84;;;15.21;88.49
20710;BME280;10516;51.518;9.864;2022-09-14T11:48:05;97783.91;;;14.78;89.87
20710;BME280;10516;51.518;9.864;2022-09-14T11:50:33;97781.22;;;14.38;92.15
20710;BME280;10516;51.518;9.864;2022-09-14T11:53:20;97779.03;;;14.40;92.02
20710;BME280;10516;51.518;9.864;2022-09-14T11:55:49;97772.41;;;14.37;93.96
20710;BME280;10516;51.518;9.864;2022-09-14T11:58:25;97772.19;;;14.61;91.66
20710;BME280;10516;51.518;9.864;2022-09-14T12:01:23;97764.88;;;15.24;89.72
20710;BME280;10516;51.518;9.864;2022-09-14T12:11:56;97765.06;;;15.50;88.32
20710;BME280;10516;51.518;9.864;2022-09-14T12:14:34;97746.47;;;14.82;91.71
20710;BME280;10516;51.518;9.864;2022-09-14T12:17:22;97754.69;;;15.57;88.92
20710;BME280;10516;51.518;9.864;2022-09-14T12:19:51;97759.13;;;15.39;89.34
20710;BME280;10516;51.518;9.864;2022-09-14T12:22:28;97756.81;;;15.24;89.13
20710;BME280;10516;51.518;9.864;2022-09-14T12:25:00;97762.16;;;14.39;93.66
20710;BME280;10516;51.518;9.864;2022-09-14T12:27:29;97744.22;;;14.62;94.02
20710;BME280;10516;51.518;9.864;2022-09-14T12:29:55;97760.44;;;15.06;91.99
20710;BME280;10516;51.518;9.864;2022-09-14T12:32:47;97759.25;;;14.49;93.15
20710;BME280;10516;51.518;9.864;2022-09-14T12:37:57;97736.16;;;14.62;93.60
20710;BME280;10516;51.518;9.864;2022-09-14T12:40:31;97749.81;;;14.52;95.79
20710;BME280;10516;51.518;9.864;2022-09-14T12:54:19;97764.63;;;15.34;89.46
20710;BME280;10516;51.518;9.864;2022-09-14T12:57:06;97765.09;;;14.78;92.43
20710;BME280;10516;51.518;9.864;2022-09-14T12:59:59;97771.38;;;15.10;91.66
20710;BME280;10516;51.518;9.864;2022-09-14T13:05:23;97774.34;;;16.27;85.24
20710;BME280;10516;51.518;9.864;2022-09-14T13:07:50;97767.75;;;15.72;87.14
20710;BME280;10516;51.518;9.864;2022-09-14T13:10:32;97771.00;;;16.22;85.05
20710;BME280;10516;51.518;9.864;2022-09-14T13:13:05;97759.66;;;15.94;86.42
20710;BME280;10516;51.518;9.864;2022-09-14T13:15:35;97751.59;;;14.70;92.11
20710;BME280;10516;51.518;9.864;2022-09-14T13:18:03;97739.88;;;14.52;94.58
20710;BME280;10516;51.518;9.864;2022-09-14T13:20:32;97745.00;;;15.34;89.57
20710;BME280;10516;51.518;9.864;2022-09-14T13:22:57;97740.25;;;14.59;93.28
20710;BME280;10516;51.518;9.864;2022-09-14T13:25:35;97724.94;;;14.19;94.55
20710;BME280;10516;51.518;9.864;2022-09-14T13:28:04;97708.31;;;14.71;93.39
20710;BME280;10516;51.518;9.864;2022-09-14T13:30:32;97710.63;;;14.86;92.61
20710;BME280;10516;51.518;9.864;2022-09-14T13:32:59;97722.50;;;15.08;91.83
20710;BME280;10516;51.518;9.864;2022-09-14T13:37:53;97714.75;;;14.35;94.75
20710;BME280;10516;51.518;9.864;2022-09-14T13:40:28;97718.34;;;14.66;93.62
20710;BME280;10516;51.518;9.864;2022-09-14T13:42:55;97711.44;;;14.10;96.12
20710;BME280;10516;51.518;9.864;2022-09-14T13:45:22;97683.59;;;14.34;95.36
20710;BME280;10516;51.518;9.864;2022-09-14T13:47:48;97708.38;;;14.80;93.74
20710;BME280;10516;51.518;9.864;2022-09-14T13:50:14;97690.91;;;14.55;93.89
20710;BME280;10516;51.518;9.864;2022-09-14T13:52:41;97706.63;;;14.48;94.77
20710;BME280;10516;51.518;9.864;2022-09-14T13:57:36;97691.19;;;14.67;93.49
20710;BME280;10516;51.518;9.864;2022-09-14T14:00:20;97697.03;;;14.34;96.10
20710;BME280;10516;51.518;9.864;2022-09-14T14:02:49;97702.44;;;14.69;94.42
20710;BME280;10516;51.518;9.864;2022-09-14T14:05:21;97707.75;;;14.20;97.82
20710;BME280;10516;51.518;9.864;2022-09-14T14:07:47;97693.94;;;14.40;96.22
20710;BME280;10516;51.518;9.864;2022-09-14T14:10:44;97705.69;;;14.31;97.57
20710;BME280;10516;51.518;9.864;2022-09-14T14:13:26;97689.19;;;14.37;96.72
20710;BME280;10516;51.518;9.864;2022-09-14T14:16:16;97679.16;;;14.02;97.42
20710;BME280;10516;51.518;9.864;2022-09-14T14:18:49;97702.28;;;13.98;97.97
20710;BME280;10516;51.518;9.864;2022-09-14T14:23:50;97709.31;;;14.97;93.30
20710;BME280;10516;51.518;9.864;2022-09-14T14:26:34;97706.78;;;14.43;95.48
20710;BME280;10516;51.518;9.864;2022-09-14T14:29:07;97687.75;;;14.40;94.55
20710;BME280;10516;51.518;9.864;2022-09-14T14:31:33;97692.66;;;14.24;96.44
20710;BME280;10516;51.518;9.864;2022-09-14T14:33:58;97667.06;;;14.26;96.42
20710;BME280;10516;51.518;9.864;2022-09-14T14:36:25;97685.69;;;13.82;98.29
20710;BME280;10516;51.518;9.864;2022-09-14T14:38:50;97677.41;;;13.51;99.28
20710;BME280;10516;51.518;9.864;2022-09-14T14:41:18;97682.91;;;14.01;97.85
20710;BME280;10516;51.518;9.864;2022-09-14T14:43:45;97693.94;;;13.99;97.42
20710;BME280;10516;51.518;9.864;2022-09-14T14:46:12;97698.69;;;14.02;97.96
20710;BME280;10516;51.518;9.864;2022-09-14T14:48:37;97670.00;;;13.76;99.33
20710;BME280;10516;51.518;9.864;2022-09-14T14:54:06;97669.19;;;14.16;97.15
20710;BME280;10516;51.518;9.864;2022-09-14T14:56:31;97677.72;;;14.18;95.99
20710;BME280;10516;51.518;9.864;2022-09-14T14:58:57;97677.22;;;14.16;96.23
20710;BME280;10516;51.518;9.864;2022-09-14T15:01:22;97654.69;;;13.76;98.05
20710;BME280;10516;51.518;9.864;2022-09-14T15:03:47;97662.63;;;13.68;99.24
20710;BME280;10516;51.518;9.864;2022-09-14T15:06:18;97659.44;;;13.66;99.61
20710;BME280;10516;51.518;9.864;2022-09-14T15:08:50;97639.97;;;13.87;99.14
20710;BME280;10516;51.518;9.864;2022-09-14T15:11:22;97637.88;;;13.98;98.92
20710;BME280;10516;51.518;9.864;2022-09-14T15:13:47;97652.91;;;13.85;99.05
20710;BME280;10516;51.518;9.864;2022-09-14T15:16:19;97635.59;;;13.91;98.31
20710;BME280;10516;51.518;9.864;2022-09-14T15:18:47;97646.00;;;14.47;94.73
20710;BME280;10516;51.518;9.864;2022-09-14T15:21:12;97654.28;;;14.95;92.99
20710;BME280;10516;51.518;9.864;2022-09-14T15:23:37;97659.16;;;14.08;95.89
20710;BME280;10516;51.518;9.864;2022-09-14T15:26:03;97650.38;;;14.43;96.20
20710;BME280;10516;51.518;9.864;2022-09-14T15:28:28;97651.19;;;14.66;94.67
20710;BME280;10516;51.518;9.864;2022-09-14T15:30:54;97641.53;;;14.15;95.45
20710;BME280;10516;51.518;9.864;2022-09-14T15:33:21;97651.41;;;14.06;95.60
20710;BME280;10516;51.518;9.864;2022-09-14T15:35:53;97633.81;;;14.14;96.02
20710;BME280;10516;51.518;9.864;2022-09-14T15:38:19;97641.84;;;14.27;95.99
20710;BME280;10516;51.518;9.864;2022-09-14T15:40:45;97655.00;;;14.02;96.95